sensor_id;sensor_type;location;lat;lon;timestamp;pressure;altitude;pressure_sealevel;temperature;humidity
38054;BME280;23859;50.672;7.164;2023-09-30T00:01:00;35357.66;;;-140.95;79.54
38054;BME280;23859;50.672;7.164;2023-09-30T00:03:27;35401.88;;;-140.95;79.16
38054;BME280;23859;50.672;7.164;2023-09-30T00:05:54;35381.78;;;-140.95;78.80
38054;BME280;23859;50.672;7.164;2023-09-30T00:08:20;35371.72;;;-140.95;78.57
38054;BME280;23859;50.672;7.164;2023-09-30T00:10:46;35371.72;;;-140.95;78.03
38054;BME280;23859;50.672;7.164;2023-09-30T00:13:13;35345.63;;;-140.95;77.92
38054;BME280;23859;50.672;7.164;2023-09-30T00:15:39;35397.84;;;-140.95;78.50
38054;BME280;23859;50.672;7.164;2023-09-30T00:18:06;35347.63;;;-140.95;77.72
38054;BME280;23859;50.672;7.164;2023-09-30T00:20:32;35399.84;;;-140.95;78.18
38054;BME280;23859;50.672;7.164;2023-09-30T00:22:58;35383.78;;;-140.95;78.24
38054;BME280;23859;50.672;7.164;2023-09-30T00:25:24;35401.88;;;-140.95;78.69
38054;BME280;23859;50.672;7.164;2023-09-30T00:27:51;35417.94;;;-140.95;78.85
38054;BME280;23859;50.672;7.164;2023-09-30T00:30:17;35409.91;;;-140.95;78.40
38054;BME280;23859;50.672;7.164;2023-09-30T00:32:43;35691.16;;;-140.95;78.69
38054;BME280;23859;50.672;7.164;2023-09-30T00:35:09;35462.13;;;-140.95;79.08
38054;BME280;23859;50.672;7.164;2023-09-30T00:37:40;35421.94;;;-140.95;78.97
38054;BME280;23859;50.672;7.164;2023-09-30T00:40:08;35438.03;;;-140.95;79.33
38054;BME280;23859;50.672;7.164;2023-09-30T00:42:38;35405.88;;;-140.95;79.05
38054;BME280;23859;50.672;7.164;2023-09-30T00:45:05;35440.03;;;-140.95;78.98
38054;BME280;23859;50.672;7.164;2023-09-30T00:47:31;35450.06;;;-140.95;79.74
38054;BME280;23859;50.672;7.164;2023-09-30T00:49:59;35446.06;;;-140.95;79.37
38054;BME280;23859;50.672;7.164;2023-09-30T00:52:25;35470.16;;;-140.95;79.56
38054;BME280;23859;50.672;7.164;2023-09-30T00:54:52;35458.13;;;-140.95;79.88
38054;BME280;23859;50.672;7.164;2023-09-30T00:57:21;35478.22;;;-140.95;79.97
38054;BME280;23859;50.672;7.164;2023-09-30T00:59:48;35458.13;;;-140.95;80.10
38054;BME280;23859;50.672;7.164;2023-09-30T01:02:16;35448.06;;;-140.95;79.75
38054;BME280;23859;50.672;7.164;2023-09-30T01:04:43;35450.06;;;-140.95;79.52
38054;BME280;23859;50.672;7.164;2023-09-30T01:07:09;35496.28;;;-140.95;79.06
38054;BME280;23859;50.672;7.164;2023-09-30T01:09:35;35486.25;;;-140.95;79.91
38054;BME280;23859;50.672;7.164;2023-09-30T01:12:02;35450.06;;;-140.95;79.60
38054;BME280;23859;50.672;7.164;2023-09-30T01:14:32;35450.06;;;-140.95;79.43
38054;BME280;23859;50.672;7.164;2023-09-30T01:17:04;35440.03;;;-140.95;79.56
38054;BME280;23859;50.672;7.164;2023-09-30T01:19:34;35434.00;;;-140.95;79.42
38054;BME280;23859;50.672;7.164;2023-09-30T01:22:01;35470.16;;;-140.95;79.55
38054;BME280;23859;50.672;7.164;2023-09-30T01:24:38;35444.06;;;-140.95;79.35
38054;BME280;23859;50.672;7.164;2023-09-30T01:27:04;35466.16;;;-140.95;79.85
38054;BME280;23859;50.672;7.164;2023-09-30T01:29:30;35458.13;;;-140.95;79.65
38054;BME280;23859;50.672;7.164;2023-09-30T01:31:56;35442.03;;;-140.95;78.99
38054;BME280;23859;50.672;7.164;2023-09-30T01:34:22;35423.97;;;-140.95;78.99
38054;BME280;23859;50.672;7.164;2023-09-30T01:36:48;35492.28;;;-140.95;78.74
38054;BME280;23859;50.672;7.164;2023-09-30T01:39:14;35468.16;;;-140.95;79.09
38054;BME280;23859;50.672;7.164;2023-09-30T01:41:41;35490.25;;;-140.95;80.41
38054;BME280;23859;50.672;7.164;2023-09-30T01:44:08;35502.31;;;-140.95;80.05
38054;BME280;23859;50.672;7.164;2023-09-30T01:46:35;35470.16;;;-140.95;79.31
38054;BME280;23859;50.672;7.164;2023-09-30T01:49:02;35440.03;;;-140.95;79.61
38054;BME280;23859;50.672;7.164;2023-09-30T01:51:30;35470.16;;;-140.95;79.57
38054;BME280;23859;50.672;7.164;2023-09-30T01:53:56;35494.28;;;-140.95;79.46
38054;BME280;23859;50.672;7.164;2023-09-30T01:56:22;35488.25;;;-140.95;79.40
38054;BME280;23859;50.672;7.164;2023-09-30T01:58:48;35474.19;;;-140.95;79.45
38054;BME280;23859;50.672;7.164;2023-09-30T02:01:14;35488.25;;;-140.95;79.81
38054;BME280;23859;50.672;7.164;2023-09-30T02:03:41;35470.16;;;-140.95;80.16
38054;BME280;23859;50.672;7.164;2023-09-30T02:06:07;35498.28;;;-140.95;79.65
38054;BME280;23859;50.672;7.164;2023-09-30T02:08:33;35486.25;;;-140.95;79.69
38054;BME280;23859;50.672;7.164;2023-09-30T02:11:02;35502.31;;;-140.95;79.71
38054;BME280;23859;50.672;7.164;2023-09-30T02:13:30;35787.59;;;-140.95;80.76
38054;BME280;23859;50.672;7.164;2023-09-30T02:15:56;35470.16;;;-140.95;80.50
38054;BME280;23859;50.672;7.164;2023-09-30T02:18:23;35502.31;;;-140.95;79.91
38054;BME280;23859;50.672;7.164;2023-09-30T02:20:49;35474.19;;;-140.95;79.51
38054;BME280;23859;50.672;7.164;2023-09-30T02:23:17;35444.06;;;-140.95;79.31
38054;BME280;23859;50.672;7.164;2023-09-30T02:25:43;35466.16;;;-140.95;79.73
38054;BME280;23859;50.672;7.164;2023-09-30T02:28:09;35460.13;;;-140.95;79.49
38054;BME280;23859;50.672;7.164;2023-09-30T02:30:36;35450.06;;;-140.95;79.31
38054;BME280;23859;50.672;7.164;2023-09-30T02:33:02;35490.25;;;-140.95;79.33
38054;BME280;23859;50.672;7.164;2023-09-30T02:35:29;35486.25;;;-140.95;79.57
38054;BME280;23859;50.672;7.164;2023-09-30T02:37:55;35478.22;;;-140.95;79.96
38054;BME280;23859;50.672;7.164;2023-09-30T02:40:21;35474.19;;;-140.95;80.31
38054;BME280;23859;50.672;7.164;2023-09-30T02:42:50;35450.06;;;-140.95;80.12
38054;BME280;23859;50.672;7.164;2023-09-30T02:45:17;35432.00;;;-140.95;79.93
38054;BME280;23859;50.672;7.164;2023-09-30T02:47:43;35409.91;;;-140.95;80.27
38054;BME280;23859;50.672;7.164;2023-09-30T02:50:10;35450.06;;;-140.95;79.67
38054;BME280;23859;50.672;7.164;2023-09-30T02:52:42;35427.97;;;-140.95;80.09
38054;BME280;23859;50.672;7.164;2023-09-30T02:55:09;35442.03;;;-140.95;79.37
38054;BME280;23859;50.672;7.164;2023-09-30T02:57:36;35399.84;;;-140.95;79.62
38054;BME280;23859;50.672;7.164;2023-09-30T03:00:04;35393.81;;;-140.95;78.80
38054;BME280;23859;50.672;7.164;2023-09-30T03:02:39;35385.78;;;-140.95;78.92
38054;BME280;23859;50.672;7.164;2023-09-30T03:05:06;35389.81;;;-140.95;78.43
38054;BME280;23859;50.672;7.164;2023-09-30T03:07:33;35409.91;;;-140.95;78.10
38054;BME280;23859;50.672;7.164;2023-09-30T03:09:59;35407.88;;;-140.95;78.80
38054;BME280;23859;50.672;7.164;2023-09-30T03:12:30;35409.91;;;-140.95;79.52
38054;BME280;23859;50.672;7.164;2023-09-30T03:14:57;35442.03;;;-140.95;79.52
38054;BME280;23859;50.672;7.164;2023-09-30T03:17:23;35452.09;;;-140.95;79.71
38054;BME280;23859;50.672;7.164;2023-09-30T03:19:51;35448.06;;;-140.95;79.48
38054;BME280;23859;50.672;7.164;2023-09-30T03:22:17;35464.16;;;-140.95;79.94
38054;BME280;23859;50.672;7.164;2023-09-30T03:24:43;35482.22;;;-140.95;80.54
38054;BME280;23859;50.672;7.164;2023-09-30T03:27:09;35468.16;;;-140.95;80.32
38054;BME280;23859;50.672;7.164;2023-09-30T03:29:38;35470.16;;;-140.95;80.24
38054;BME280;23859;50.672;7.164;2023-09-30T03:32:04;35460.13;;;-140.95;80.66
38054;BME280;23859;50.672;7.164;2023-09-30T03:34:30;35456.09;;;-140.95;80.19
38054;BME280;23859;50.672;7.164;2023-09-30T03:36:56;35448.06;;;-140.95;80.99
38054;BME280;23859;50.672;7.164;2023-09-30T03:39:24;35502.31;;;-140.95;80.78
38054;BME280;23859;50.672;7.164;2023-09-30T03:41:55;35510.34;;;-140.95;80.83
38054;BME280;23859;50.672;7.164;2023-09-30T03:44:22;35496.28;;;-140.95;80.54
38054;BME280;23859;50.672;7.164;2023-09-30T03:46:50;35518.38;;;-140.95;80.16
38054;BME280;23859;50.672;7.164;2023-09-30T03:49:16;35490.25;;;-140.95;80.54
38054;BME280;23859;50.672;7.164;2023-09-30T03:51:42;35516.38;;;-140.95;80.66
38054;BME280;23859;50.672;7.164;2023-09-30T03:54:08;35548.53;;;-140.95;81.31
38054;BME280;23859;50.672;7.164;2023-09-30T03:56:34;35510.34;;;-140.95;81.67
38054;BME280;23859;50.672;7.164;2023-09-30T03:59:00;35528.44;;;-140.95;81.12
38054;BME280;23859;50.672;7.164;2023-09-30T04:01:26;35474.19;;;-140.95;81.15
38054;BME280;23859;50.672;7.164;2023-09-30T04:03:53;35506.34;;;-140.95;81.31
38054;BME280;23859;50.672;7.164;2023-09-30T04:06:22;35508.34;;;-140.95;81.24
38054;BME280;23859;50.672;7.164;2023-09-30T04:08:48;35512.34;;;-140.95;81.11
38054;BME280;23859;50.672;7.164;2023-09-30T04:11:14;35526.41;;;-140.95;81.54
38054;BME280;23859;50.672;7.164;2023-09-30T04:13:45;35522.41;;;-140.95;81.74
38054;BME280;23859;50.672;7.164;2023-09-30T04:16:11;35506.34;;;-140.95;81.88
38054;BME280;23859;50.672;7.164;2023-09-30T04:18:37;35534.47;;;-140.95;81.79
38054;BME280;23859;50.672;7.164;2023-09-30T04:21:06;35490.25;;;-140.95;81.63
38054;BME280;23859;50.672;7.164;2023-09-30T04:23:33;35783.59;;;-140.95;82.14
38054;BME280;23859;50.672;7.164;2023-09-30T04:26:02;35528.44;;;-140.95;82.10
38054;BME280;23859;50.672;7.164;2023-09-30T04:28:29;35554.56;;;-140.95;81.84
38054;BME280;23859;50.672;7.164;2023-09-30T04:30:55;35506.34;;;-140.95;81.67
38054;BME280;23859;50.672;7.164;2023-09-30T04:33:22;35526.41;;;-140.95;80.82
38054;BME280;23859;50.672;7.164;2023-09-30T04:35:50;35530.44;;;-140.95;80.94
38054;BME280;23859;50.672;7.164;2023-09-30T04:38:16;35538.47;;;-140.95;80.98
38054;BME280;23859;50.672;7.164;2023-09-30T04:40:42;35546.50;;;-140.95;80.18
38054;BME280;23859;50.672;7.164;2023-09-30T04:43:10;35514.38;;;-140.95;80.31
38054;BME280;23859;50.672;7.164;2023-09-30T04:45:39;35556.56;;;-140.95;80.97
38054;BME280;23859;50.672;7.164;2023-09-30T04:48:06;35556.56;;;-140.95;80.46
38054;BME280;23859;50.672;7.164;2023-09-30T04:50:32;35556.56;;;-140.95;80.84
38054;BME280;23859;50.672;7.164;2023-09-30T04:52:58;35552.53;;;-140.95;81.46
38054;BME280;23859;50.672;7.164;2023-09-30T04:55:24;35548.53;;;-140.95;81.48
38054;BME280;23859;50.672;7.164;2023-09-30T04:57:51;35558.56;;;-140.95;81.76
38054;BME280;23859;50.672;7.164;2023-09-30T05:00:19;35570.63;;;-140.95;81.94
38054;BME280;23859;50.672;7.164;2023-09-30T05:02:51;35510.34;;;-140.95;82.14
38054;BME280;23859;50.672;7.164;2023-09-30T05:05:18;35530.44;;;-140.95;82.42
38054;BME280;23859;50.672;7.164;2023-09-30T05:07:44;35512.34;;;-140.95;82.35
38054;BME280;23859;50.672;7.164;2023-09-30T05:10:12;35526.41;;;-140.95;81.46
38054;BME280;23859;50.672;7.164;2023-09-30T05:12:39;35504.31;;;-140.95;81.67
38054;BME280;23859;50.672;7.164;2023-09-30T05:15:07;35538.47;;;-140.95;81.59
38054;BME280;23859;50.672;7.164;2023-09-30T05:17:33;35552.53;;;-140.95;81.69
38054;BME280;23859;50.672;7.164;2023-09-30T05:19:59;35538.47;;;-140.95;81.78
38054;BME280;23859;50.672;7.164;2023-09-30T05:22:25;35504.31;;;-140.95;81.62
38054;BME280;23859;50.672;7.164;2023-09-30T05:24:53;35544.50;;;-140.95;82.14
38054;BME280;23859;50.672;7.164;2023-09-30T05:27:19;35536.47;;;-140.95;82.10
38054;BME280;23859;50.672;7.164;2023-09-30T05:29:45;35540.47;;;-140.95;82.56
38054;BME280;23859;50.672;7.164;2023-09-30T05:32:12;35534.47;;;-140.95;82.61
38054;BME280;23859;50.672;7.164;2023-09-30T05:34:40;35534.47;;;-140.95;82.05
38054;BME280;23859;50.672;7.164;2023-09-30T05:37:06;35546.50;;;-140.95;81.72
38054;BME280;23859;50.672;7.164;2023-09-30T05:39:32;35552.53;;;-140.95;81.82
38054;BME280;23859;50.672;7.164;2023-09-30T05:41:59;35534.47;;;-140.95;81.17
38054;BME280;23859;50.672;7.164;2023-09-30T05:44:25;35566.59;;;-140.95;81.17
38054;BME280;23859;50.672;7.164;2023-09-30T05:46:53;35518.38;;;-140.95;80.57
38054;BME280;23859;50.672;7.164;2023-09-30T05:49:19;35548.53;;;-140.95;80.81
38054;BME280;23859;50.672;7.164;2023-09-30T05:51:46;35526.41;;;-140.95;80.95
38054;BME280;23859;50.672;7.164;2023-09-30T05:54:12;35532.44;;;-140.95;80.86
38054;BME280;23859;50.672;7.164;2023-09-30T05:56:39;35546.50;;;-140.95;80.65
38054;BME280;23859;50.672;7.164;2023-09-30T05:59:08;35510.34;;;-140.95;80.21
38054;BME280;23859;50.672;7.164;2023-09-30T06:01:35;35518.38;;;-140.95;80.50
38054;BME280;23859;50.672;7.164;2023-09-30T06:04:05;35486.25;;;-140.95;80.82
38054;BME280;23859;50.672;7.164;2023-09-30T06:06:31;35532.44;;;-140.95;81.19
38054;BME280;23859;50.672;7.164;2023-09-30T06:08:58;35526.41;;;-140.95;81.95
38054;BME280;23859;50.672;7.164;2023-09-30T06:11:25;35550.53;;;-140.95;82.06
38054;BME280;23859;50.672;7.164;2023-09-30T06:13:57;35498.28;;;-140.95;82.06
38054;BME280;23859;50.672;7.164;2023-09-30T06:16:25;35518.38;;;-140.95;82.13
38054;BME280;23859;50.672;7.164;2023-09-30T06:18:52;35506.34;;;-140.95;82.15
38054;BME280;23859;50.672;7.164;2023-09-30T06:21:19;35516.38;;;-140.95;82.04
38054;BME280;23859;50.672;7.164;2023-09-30T06:23:47;35486.25;;;-140.95;82.39
38054;BME280;23859;50.672;7.164;2023-09-30T06:26:14;35472.19;;;-140.95;82.16
38054;BME280;23859;50.672;7.164;2023-09-30T06:28:42;35502.31;;;-140.95;82.25
38054;BME280;23859;50.672;7.164;2023-09-30T06:31:09;35466.16;;;-140.95;82.01
38054;BME280;23859;50.672;7.164;2023-09-30T06:33:36;35442.03;;;-140.95;81.93
38054;BME280;23859;50.672;7.164;2023-09-30T06:36:10;35474.19;;;-140.95;81.79
38054;BME280;23859;50.672;7.164;2023-09-30T06:38:37;35436.00;;;-140.95;81.56
38054;BME280;23859;50.672;7.164;2023-09-30T06:41:03;35466.16;;;-140.95;81.38
38054;BME280;23859;50.672;7.164;2023-09-30T06:43:30;35456.09;;;-140.95;81.46
38054;BME280;23859;50.672;7.164;2023-09-30T06:46:16;35518.38;;;-140.95;81.57
38054;BME280;23859;50.672;7.164;2023-09-30T06:48:42;35434.00;;;-140.95;81.59
38054;BME280;23859;50.672;7.164;2023-09-30T06:51:14;35448.06;;;-140.95;80.86
38054;BME280;23859;50.672;7.164;2023-09-30T06:53:43;35456.09;;;-140.95;80.59
38054;BME280;23859;50.672;7.164;2023-09-30T06:56:09;35737.38;;;-140.95;81.06
38054;BME280;23859;50.672;7.164;2023-09-30T06:58:35;35425.97;;;-140.95;80.23
38054;BME280;23859;50.672;7.164;2023-09-30T07:01:02;35434.00;;;-140.95;80.03
38054;BME280;23859;50.672;7.164;2023-09-30T07:03:28;35434.00;;;-140.95;79.93
38054;BME280;23859;50.672;7.164;2023-09-30T07:05:54;35448.06;;;-140.95;80.40
38054;BME280;23859;50.672;7.164;2023-09-30T07:08:22;35454.09;;;-140.95;79.92
38054;BME280;23859;50.672;7.164;2023-09-30T07:10:48;35727.34;;;-140.95;79.66
38054;BME280;23859;50.672;7.164;2023-09-30T07:13:18;35448.06;;;-140.95;79.75
38054;BME280;23859;50.672;7.164;2023-09-30T07:15:44;35462.13;;;-140.95;79.52
38054;BME280;23859;50.672;7.164;2023-09-30T07:18:10;35425.97;;;-140.95;79.02
38054;BME280;23859;50.672;7.164;2023-09-30T07:20:38;35419.94;;;-140.95;78.76
38054;BME280;23859;50.672;7.164;2023-09-30T07:23:04;35381.78;;;-140.95;78.20
38054;BME280;23859;50.672;7.164;2023-09-30T07:25:30;35385.78;;;-140.95;77.79
38054;BME280;23859;50.672;7.164;2023-09-30T07:27:58;35397.84;;;-140.95;77.07
38054;BME280;23859;50.672;7.164;2023-09-30T07:30:25;35385.78;;;-140.95;77.13
38054;BME280;23859;50.672;7.164;2023-09-30T07:32:51;35373.75;;;-140.95;77.05
38054;BME280;23859;50.672;7.164;2023-09-30T07:35:18;35345.63;;;-140.95;76.35
38054;BME280;23859;50.672;7.164;2023-09-30T07:37:44;35321.50;;;-140.95;76.21
38054;BME280;23859;50.672;7.164;2023-09-30T07:40:11;35317.50;;;-140.95;76.13
38054;BME280;23859;50.672;7.164;2023-09-30T07:42:37;35263.25;;;-140.95;74.46
38054;BME280;23859;50.672;7.164;2023-09-30T07:45:04;35496.28;;;-140.95;74.71
38054;BME280;23859;50.672;7.164;2023-09-30T07:47:31;35253.19;;;-140.95;74.14
38054;BME280;23859;50.672;7.164;2023-09-30T07:50:00;35219.06;;;-140.95;73.58
38054;BME280;23859;50.672;7.164;2023-09-30T07:52:26;35213.03;;;-140.95;73.20
38054;BME280;23859;50.672;7.164;2023-09-30T07:54:52;35174.84;;;-140.95;72.77
38054;BME280;23859;50.672;7.164;2023-09-30T07:57:18;35217.03;;;-140.95;71.39
38054;BME280;23859;50.672;7.164;2023-09-30T07:59:48;35219.06;;;-140.95;71.95
38054;BME280;23859;50.672;7.164;2023-09-30T08:02:14;35207.00;;;-140.95;71.62
38054;BME280;23859;50.672;7.164;2023-09-30T08:04:40;35166.81;;;-140.95;72.44
38054;BME280;23859;50.672;7.164;2023-09-30T08:07:06;35168.84;;;-140.95;72.49
38054;BME280;23859;50.672;7.164;2023-09-30T08:09:32;35092.50;;;-140.95;71.58
38054;BME280;23859;50.672;7.164;2023-09-30T08:11:59;35096.50;;;-140.95;70.94
38054;BME280;23859;50.672;7.164;2023-09-30T08:14:25;35154.78;;;-140.95;70.63
38054;BME280;23859;50.672;7.164;2023-09-30T08:16:51;35040.25;;;-140.95;71.07
38054;BME280;23859;50.672;7.164;2023-09-30T08:19:17;35046.28;;;-140.95;69.31
38054;BME280;23859;50.672;7.164;2023-09-30T08:21:45;33540.00;;;-140.95;67.31
38054;BME280;23859;50.672;7.164;2023-09-30T08:24:11;35012.16;;;-140.95;68.21
38054;BME280;23859;50.672;7.164;2023-09-30T08:26:38;34921.75;;;-140.95;66.71
38054;BME280;23859;50.672;7.164;2023-09-30T08:29:04;34975.97;;;-140.95;67.60
38054;BME280;23859;50.672;7.164;2023-09-30T08:31:30;35024.19;;;-140.95;68.99
38054;BME280;23859;50.672;7.164;2023-09-30T08:33:56;34975.97;;;-140.95;67.58
38054;BME280;23859;50.672;7.164;2023-09-30T08:36:23;34955.91;;;-140.95;67.46
38054;BME280;23859;50.672;7.164;2023-09-30T08:38:49;34971.97;;;-140.95;67.46
38054;BME280;23859;50.672;7.164;2023-09-30T08:41:31;33148.44;;;-140.95;69.04
38054;BME280;23859;50.672;7.164;2023-09-30T08:44:01;34986.03;;;-140.95;68.58
38054;BME280;23859;50.672;7.164;2023-09-30T08:46:34;34969.97;;;-140.95;67.56
38054;BME280;23859;50.672;7.164;2023-09-30T08:49:02;35000.09;;;-140.95;68.73
38054;BME280;23859;50.672;7.164;2023-09-30T08:51:30;35008.13;;;-140.95;68.27
38054;BME280;23859;50.672;7.164;2023-09-30T08:53:57;34955.91;;;-140.95;67.79
38054;BME280;23859;50.672;7.164;2023-09-30T08:56:33;34929.78;;;-140.95;67.79
38054;BME280;23859;50.672;7.164;2023-09-30T08:59:01;34933.81;;;-140.95;66.31
38054;BME280;23859;50.672;7.164;2023-09-30T09:01:28;34907.69;;;-140.95;65.86
38054;BME280;23859;50.672;7.164;2023-09-30T09:03:56;34859.47;;;-140.95;66.40
38054;BME280;23859;50.672;7.164;2023-09-30T09:06:24;34825.34;;;-140.95;65.15
38054;BME280;23859;50.672;7.164;2023-09-30T09:08:51;34791.19;;;-140.95;63.93
38054;BME280;23859;50.672;7.164;2023-09-30T09:11:17;34771.09;;;-140.95;63.89
38054;BME280;23859;50.672;7.164;2023-09-30T09:13:48;34650.59;;;-140.95;62.57
38054;BME280;23859;50.672;7.164;2023-09-30T09:16:16;34594.34;;;-140.95;61.16
38054;BME280;23859;50.672;7.164;2023-09-30T09:18:46;34489.91;;;-140.95;58.71
38054;BME280;23859;50.672;7.164;2023-09-30T09:21:17;34323.19;;;-140.95;56.97
38054;BME280;23859;50.672;7.164;2023-09-30T09:23:44;34443.69;;;-140.95;58.25
38054;BME280;23859;50.672;7.164;2023-09-30T09:26:24;34558.19;;;-140.95;59.61
38054;BME280;23859;50.672;7.164;2023-09-30T09:28:53;34574.25;;;-140.95;59.38
38054;BME280;23859;50.672;7.164;2023-09-30T09:31:29;34636.53;;;-140.95;60.62
38054;BME280;23859;50.672;7.164;2023-09-30T09:33:58;34654.59;;;-140.95;61.38
38054;BME280;23859;50.672;7.164;2023-09-30T09:36:51;34698.78;;;-140.95;62.10
38054;BME280;23859;50.672;7.164;2023-09-30T09:39:29;34777.13;;;-140.95;61.82
38054;BME280;23859;50.672;7.164;2023-09-30T09:41:58;34755.03;;;-140.95;62.61
38054;BME280;23859;50.672;7.164;2023-09-30T09:44:27;34738.97;;;-140.95;64.11
38054;BME280;23859;50.672;7.164;2023-09-30T09:46:53;34706.81;;;-140.95;62.85
38054;BME280;23859;50.672;7.164;2023-09-30T09:49:20;34690.75;;;-140.95;62.38
38054;BME280;23859;50.672;7.164;2023-09-30T09:51:48;34708.81;;;-140.95;62.58
38054;BME280;23859;50.672;7.164;2023-09-30T09:54:17;34634.50;;;-140.95;61.96
38054;BME280;23859;50.672;7.164;2023-09-30T09:56:46;34578.28;;;-140.95;60.45
38054;BME280;23859;50.672;7.164;2023-09-30T09:59:15;34542.13;;;-140.95;59.59
38054;BME280;23859;50.672;7.164;2023-09-30T10:01:41;34550.16;;;-140.95;58.82
38054;BME280;23859;50.672;7.164;2023-09-30T10:04:10;34520.03;;;-140.95;58.89
38054;BME280;23859;50.672;7.164;2023-09-30T10:06:36;34518.00;;;-140.95;57.70
38054;BME280;23859;50.672;7.164;2023-09-30T10:09:08;34526.06;;;-140.95;55.34
38054;BME280;23859;50.672;7.164;2023-09-30T10:11:36;34530.06;;;-140.95;56.34
38054;BME280;23859;50.672;7.164;2023-09-30T10:14:03;34433.66;;;-140.95;55.47
38054;BME280;23859;50.672;7.164;2023-09-30T10:19:15;34329.22;;;-140.95;55.08
38054;BME280;23859;50.672;7.164;2023-09-30T10:24:46;34116.34;;;-140.95;52.76
38054;BME280;23859;50.672;7.164;2023-09-30T10:40:53;33969.72;;;-140.95;45.15
38054;BME280;23859;50.672;7.164;2023-09-30T10:43:32;33750.84;;;-140.95;46.38
38054;BME280;23859;50.672;7.164;2023-09-30T10:46:01;34080.19;;;-140.95;44.58
38054;BME280;23859;50.672;7.164;2023-09-30T10:50:55;33867.31;;;-140.95;45.92
38054;BME280;23859;50.672;7.164;2023-09-30T10:53:23;33893.41;;;-140.95;44.08
38054;BME280;23859;50.672;7.164;2023-09-30T10:55:56;34060.09;;;-140.95;45.13
38054;BME280;23859;50.672;7.164;2023-09-30T10:58:39;34005.88;;;-140.95;45.71
38054;BME280;23859;50.672;7.164;2023-09-30T11:01:06;34023.94;;;-140.95;45.96
38054;BME280;23859;50.672;7.164;2023-09-30T11:03:32;34017.94;;;-140.95;45.58
38054;BME280;23859;50.672;7.164;2023-09-30T11:05:58;34060.09;;;-140.95;46.47
38054;BME280;23859;50.672;7.164;2023-09-30T11:08:29;34094.25;;;-140.95;47.26
38054;BME280;23859;50.672;7.164;2023-09-30T11:10:58;34084.19;;;-140.95;46.95
38054;BME280;23859;50.672;7.164;2023-09-30T11:13:32;34064.13;;;-140.95;46.72
38054;BME280;23859;50.672;7.164;2023-09-30T11:16:01;34068.13;;;-140.95;47.17
38054;BME280;23859;50.672;7.164;2023-09-30T11:18:28;34076.16;;;-140.95;46.07
38054;BME280;23859;50.672;7.164;2023-09-30T11:21:04;34152.47;;;-140.95;45.50
38054;BME280;23859;50.672;7.164;2023-09-30T11:23:31;34138.44;;;-140.95;44.51
38054;BME280;23859;50.672;7.164;2023-09-30T11:25:58;34281.03;;;-140.95;44.01
38054;BME280;23859;50.672;7.164;2023-09-30T11:28:24;34518.00;;;-140.95;44.39
38054;BME280;23859;50.672;7.164;2023-09-30T11:31:00;34196.66;;;-140.95;45.50
38054;BME280;23859;50.672;7.164;2023-09-30T11:33:28;34100.25;;;-140.95;44.21
38054;BME280;23859;50.672;7.164;2023-09-30T11:36:05;34021.94;;;-140.95;43.90
38054;BME280;23859;50.672;7.164;2023-09-30T11:38:32;33893.41;;;-140.95;43.09
38054;BME280;23859;50.672;7.164;2023-09-30T11:43:27;33791.00;;;-140.95;42.57
38054;BME280;23859;50.672;7.164;2023-09-30T11:46:03;33807.06;;;-140.95;41.45
38054;BME280;23859;50.672;7.164;2023-09-30T11:48:29;33833.16;;;-140.95;40.21
38054;BME280;23859;50.672;7.164;2023-09-30T11:50:55;33831.16;;;-140.95;40.14
38054;BME280;23859;50.672;7.164;2023-09-30T11:53:25;33955.66;;;-140.95;40.96
38054;BME280;23859;50.672;7.164;2023-09-30T11:55:51;34007.88;;;-140.95;38.10
38054;BME280;23859;50.672;7.164;2023-09-30T11:58:20;33995.84;;;-140.95;39.40
38054;BME280;23859;50.672;7.164;2023-09-30T12:00:46;33925.53;;;-140.95;41.05
38054;BME280;23859;50.672;7.164;2023-09-30T12:03:14;33847.22;;;-140.95;41.12
38054;BME280;23859;50.672;7.164;2023-09-30T12:05:40;33742.81;;;-140.95;41.06
38054;BME280;23859;50.672;7.164;2023-09-30T12:08:06;33666.50;;;-140.95;39.57
38054;BME280;23859;50.672;7.164;2023-09-30T12:10:32;33533.97;;;-140.95;40.21
38054;BME280;23859;50.672;7.164;2023-09-30T12:12:59;33521.91;;;-140.95;38.78
38054;BME280;23859;50.672;7.164;2023-09-30T12:15:25;33383.38;;;-140.95;38.15
38054;BME280;23859;50.672;7.164;2023-09-30T12:17:51;33644.41;;;-140.95;37.73
38054;BME280;23859;50.672;7.164;2023-09-30T12:20:17;33692.59;;;-140.95;38.75
38054;BME280;23859;50.672;7.164;2023-09-30T12:22:44;33951.66;;;-140.95;39.49
38054;BME280;23859;50.672;7.164;2023-09-30T12:25:10;33941.63;;;-140.95;41.08
38054;BME280;23859;50.672;7.164;2023-09-30T12:27:36;33951.66;;;-140.95;41.81
38054;BME280;23859;50.672;7.164;2023-09-30T12:30:06;33967.72;;;-140.95;39.28
38054;BME280;23859;50.672;7.164;2023-09-30T12:32:32;34003.88;;;-140.95;38.05
38054;BME280;23859;50.672;7.164;2023-09-30T12:34:58;34056.09;;;-140.95;39.74
38054;BME280;23859;50.672;7.164;2023-09-30T12:37:24;34048.06;;;-140.95;40.70
38054;BME280;23859;50.672;7.164;2023-09-30T12:39:50;34029.97;;;-140.95;42.11
38054;BME280;23859;50.672;7.164;2023-09-30T12:42:17;34126.38;;;-140.95;39.92
38054;BME280;23859;50.672;7.164;2023-09-30T12:44:43;34058.09;;;-140.95;39.70
38054;BME280;23859;50.672;7.164;2023-09-30T12:47:09;34369.38;;;-140.95;39.57
38054;BME280;23859;50.672;7.164;2023-09-30T12:49:35;33995.84;;;-140.95;40.19
38054;BME280;23859;50.672;7.164;2023-09-30T12:52:01;33971.75;;;-140.95;39.84
38054;BME280;23859;50.672;7.164;2023-09-30T12:54:27;34005.88;;;-140.95;38.81
38054;BME280;23859;50.672;7.164;2023-09-30T12:56:53;34001.84;;;-140.95;39.17
38054;BME280;23859;50.672;7.164;2023-09-30T12:59:19;33955.66;;;-140.95;40.06
38054;BME280;23859;50.672;7.164;2023-09-30T13:01:50;33919.53;;;-140.95;39.50
38054;BME280;23859;50.672;7.164;2023-09-30T13:04:16;33923.53;;;-140.95;38.09
38054;BME280;23859;50.672;7.164;2023-09-30T13:06:42;33937.59;;;-140.95;37.75